createdAt,value
2023-03-06T00:05:01.491Z,0.00
2023-03-06T00:10:06.595Z,0.00
2023-03-06T00:15:12.251Z,3.00
2023-03-06T00:20:17.885Z,2.00
2023-03-06T00:25:23.788Z,8.00
2023-03-06T00:30:28.476Z,4.00
2023-03-06T00:35:33.336Z,2.00
2023-03-06T00:40:38.160Z,94.75
2023-03-06T00:45:42.788Z,2.00
2023-03-06T00:50:48.346Z,0.00
2023-03-06T00:55:53.544Z,0.00
2023-03-06T01:00:58.169Z,2.67
2023-03-06T01:06:02.953Z,1.00
2023-03-06T01:11:07.779Z,5.33
2023-03-06T01:16:16.558Z,2.00
2023-03-06T01:21:21.391Z,0.00
2023-03-06T01:31:30.963Z,11.75
2023-03-06T01:36:35.699Z,0.00
2023-03-06T01:41:40.446Z,11.75
2023-03-06T01:46:47.098Z,3.50
2023-03-06T01:52:04.994Z,0.50
2023-03-06T01:57:16.376Z,37.25
2023-03-06T02:02:22.526Z,6.00
2023-03-06T02:07:27.424Z,10.50
2023-03-06T02:12:32.671Z,14.33
2023-03-06T02:17:38.007Z,46.50
2023-03-06T02:22:51.749Z,26.25
2023-03-06T02:27:56.447Z,13.33
2023-03-06T02:33:01.930Z,15.33
2023-03-06T02:38:16.511Z,18.25
2023-03-06T02:43:31.938Z,32.75
2023-03-06T02:48:37.039Z,47.00
2023-03-06T02:53:41.868Z,44.67
2023-03-06T02:58:46.480Z,41.25
2023-03-06T03:03:51.273Z,39.00
2023-03-06T03:08:58.584Z,38.67
2023-03-06T03:14:03.320Z,48.00
2023-03-06T03:19:09.411Z,50.00
2023-03-06T03:24:14.971Z,46.33
2023-03-06T03:29:20.644Z,47.00
2023-03-06T03:34:25.697Z,49.00
2023-03-06T03:39:31.589Z,50.00
2023-03-06T03:44:36.346Z,75.75
2023-03-06T03:49:41.401Z,60.67
2023-03-06T03:54:46.162Z,73.25
2023-03-06T03:59:50.960Z,64.33
2023-03-06T04:05:16.333Z,50.00
2023-03-06T04:10:21.279Z,68.00
2023-03-06T04:15:27.379Z,76.00
2023-03-06T04:20:32.265Z,50.00
2023-03-06T04:25:38.454Z,50.00
2023-03-06T04:30:45.972Z,50.00
2023-03-06T04:35:51.833Z,50.00
2023-03-06T04:41:02.802Z,50.00
2023-03-06T04:46:07.704Z,50.00
2023-03-06T04:51:15.042Z,50.00
2023-03-06T04:56:19.800Z,50.00
2023-03-06T05:01:24.804Z,46.67
2023-03-06T05:06:29.636Z,50.00
2023-03-06T05:11:34.324Z,43.00
2023-03-06T05:16:39.067Z,43.25
2023-03-06T05:21:43.786Z,49.33
2023-03-06T05:26:48.479Z,49.75
2023-03-06T05:31:53.167Z,46.67
2023-03-06T05:36:58.138Z,41.00
2023-03-06T05:42:02.770Z,36.00
2023-03-06T05:47:07.870Z,40.00
2023-03-06T05:52:14.873Z,37.33
2023-03-06T05:57:21.811Z,32.50
2023-03-06T06:02:26.479Z,24.75
2023-03-06T06:07:31.300Z,19.50
2023-03-06T06:12:36.692Z,36.00
2023-03-06T06:17:41.311Z,20.67
2023-03-06T06:22:46.127Z,32.50
2023-03-06T06:27:50.799Z,23.67
2023-03-06T06:32:55.503Z,24.75
2023-03-06T06:38:00.160Z,14.75
2023-03-06T06:43:04.817Z,25.33
2023-03-06T06:48:09.977Z,10.00
2023-03-06T06:53:14.597Z,6.00
2023-03-06T06:58:19.718Z,12.50
2023-03-06T07:03:28.434Z,9.00
2023-03-06T07:08:33.610Z,11.50
2023-03-06T07:13:38.368Z,7.00
2023-03-06T07:23:47.941Z,10.00
2023-03-06T07:28:54.834Z,0.50
2023-03-06T07:34:02.507Z,4.00
2023-03-06T07:39:10.413Z,2.50
2023-03-06T07:44:15.277Z,4.00
2023-03-06T07:49:19.926Z,6.00
2023-03-06T07:54:24.568Z,14.00
2023-03-06T07:59:29.513Z,8.50
2023-03-06T08:04:34.258Z,8.50
2023-03-06T08:09:39.044Z,10.00
2023-03-06T08:14:44.005Z,4.00
2023-03-06T08:19:48.739Z,10.00
2023-03-06T08:24:57.571Z,17.75
2023-03-06T08:30:02.909Z,5.33
2023-03-06T08:35:08.233Z,18.33
2023-03-06T08:40:13.640Z,11.33
2023-03-06T08:45:18.286Z,14.00
2023-03-06T08:50:23.384Z,15.25
2023-03-06T08:55:29.306Z,2.00
2023-03-06T09:00:35.221Z,5.50
2023-03-06T09:05:42.427Z,8.00
2023-03-06T09:10:50.515Z,8.67
2023-03-06T09:15:55.395Z,17.00
2023-03-06T09:21:00.141Z,36.50
2023-03-06T09:26:05.084Z,31.25
2023-03-06T09:31:16.281Z,36.25
2023-03-06T09:36:23.140Z,40.67
2023-03-06T09:41:36.923Z,43.25
2023-03-06T09:47:06.657Z,45.67
2023-03-06T09:52:29.400Z,48.00
2023-03-06T09:57:39.956Z,48.00
2023-03-06T10:02:53.135Z,48.33
2023-03-06T10:08:04.951Z,47.67
2023-03-06T10:13:22.209Z,70.75
2023-03-06T10:18:26.908Z,67.00
2023-03-06T10:23:38.189Z,76.00
2023-03-06T10:29:09.362Z,72.33
2023-03-06T10:34:23.043Z,67.25
2023-03-06T10:39:29.484Z,96.67
2023-03-06T10:44:34.130Z,85.25
2023-03-06T10:49:40.995Z,54.00
2023-03-06T10:54:47.341Z,68.50
2023-03-06T10:59:55.453Z,85.50
2023-03-06T11:05:02.587Z,72.00
2023-03-06T11:10:26.509Z,50.00
2023-03-06T11:15:31.964Z,52.75
2023-03-06T11:26:17.804Z,54.50
2023-03-06T11:31:31.045Z,48.67
2023-03-06T11:37:06.239Z,38.67
2023-03-06T11:42:34.195Z,39.67
2023-03-06T11:48:05.625Z,37.50
2023-03-06T11:53:18.754Z,43.00
2023-03-06T11:58:41.896Z,43.33
2023-03-06T12:04:14.088Z,39.25
2023-03-06T12:09:28.388Z,39.50
2023-03-06T12:14:33.426Z,34.75
2023-03-06T12:19:56.697Z,39.50
2023-03-06T12:25:08.423Z,33.50
2023-03-06T12:30:50.005Z,39.33
2023-03-06T12:36:21.164Z,35.75
2023-03-06T12:41:40.906Z,42.50
2023-03-06T12:46:56.009Z,45.50
2023-03-06T12:52:02.681Z,43.75
2023-03-06T12:57:10.941Z,35.33
2023-03-06T13:02:31.128Z,45.75
2023-03-06T13:07:57.515Z,39.33
2023-03-06T13:13:25.209Z,41.67
2023-03-06T13:23:35.325Z,42.33
2023-03-06T13:28:47.537Z,34.00
2023-03-06T13:33:55.495Z,42.67
2023-03-06T13:39:11.690Z,39.00
2023-03-06T13:49:50.312Z,38.75
2023-03-06T13:55:42.371Z,46.67
2023-03-06T14:01:05.658Z,43.00
2023-03-06T14:06:38.758Z,41.75
2023-03-06T14:11:52.385Z,36.33
2023-03-06T14:16:59.086Z,44.25
2023-03-06T14:22:06.554Z,41.33
2023-03-06T14:27:23.194Z,39.25
2023-03-06T14:32:28.301Z,46.75
2023-03-06T14:37:38.495Z,41.75
2023-03-06T14:42:43.641Z,45.25
2023-03-06T14:47:55.796Z,40.00
2023-03-06T14:53:06.595Z,43.50
2023-03-06T14:58:19.308Z,47.67
2023-03-06T15:03:33.724Z,43.50
2023-03-06T15:08:42.787Z,37.50
2023-03-06T15:14:02.894Z,39.50
2023-03-06T15:19:18.659Z,38.25
2023-03-06T15:24:39.394Z,38.75
2023-03-06T15:29:44.525Z,46.00
2023-03-06T15:34:49.292Z,27.00
2023-03-06T15:40:13.307Z,40.00
2023-03-06T15:45:24.353Z,37.00
2023-03-06T15:50:31.401Z,36.50
2023-03-06T15:55:36.243Z,41.00
2023-03-06T16:05:46.247Z,28.00
2023-03-06T16:10:53.111Z,29.50
2023-03-06T16:15:58.277Z,47.33
2023-03-06T16:21:02.953Z,38.33
2023-03-06T16:26:17.487Z,39.00
2023-03-06T16:31:22.164Z,38.00
2023-03-06T16:36:28.757Z,40.50
2023-03-06T16:41:33.484Z,30.75
2023-03-06T16:46:42.152Z,31.00
2023-03-06T16:51:47.383Z,43.25
2023-03-06T16:56:51.978Z,9.50
2023-03-06T17:01:56.706Z,30.00
2023-03-06T17:07:01.326Z,3.00
2023-03-06T17:12:06.143Z,50.00
2023-03-06T17:17:10.838Z,48.00
2023-03-06T17:22:17.034Z,32.67
2023-03-06T17:27:24.510Z,27.33
2023-03-06T17:32:30.339Z,33.25
2023-03-06T17:37:35.167Z,26.67
2023-03-06T17:42:39.936Z,50.00
2023-03-06T17:47:44.656Z,30.00
2023-03-06T17:52:49.312Z,49.50
2023-03-06T17:57:54.719Z,47.00
2023-03-06T18:02:59.374Z,49.50
2023-03-06T18:08:04.752Z,46.00
2023-03-06T18:13:10.540Z,45.00
2023-03-06T18:18:15.220Z,45.50
2023-03-06T18:23:20.239Z,43.67
2023-03-06T18:28:24.845Z,50.00
2023-03-06T18:33:29.507Z,39.50
2023-03-06T18:38:34.120Z,59.00
2023-03-06T18:43:39.722Z,49.75
2023-03-06T18:48:44.448Z,35.00
2023-03-06T18:53:49.468Z,48.75
2023-03-06T18:58:55.089Z,47.67
2023-03-06T19:04:08.621Z,47.75
2023-03-06T19:09:13.252Z,50.00
2023-03-06T19:14:18.509Z,50.00
2023-03-06T19:19:27.386Z,50.00
2023-03-06T19:24:32.062Z,50.00
2023-03-06T19:29:36.727Z,47.75
2023-03-06T19:34:41.394Z,48.33
2023-03-06T19:39:46.098Z,50.00
2023-03-06T19:44:50.855Z,45.00
2023-03-06T19:49:55.561Z,42.75
2023-03-06T19:55:00.348Z,41.33
2023-03-06T20:00:06.043Z,36.00
2023-03-06T20:05:17.262Z,35.50
2023-03-06T20:10:21.923Z,76.50
2023-03-06T20:20:32.097Z,41.00
2023-03-06T20:25:39.660Z,48.50
2023-03-06T20:30:45.348Z,55.33
2023-03-06T20:35:50.073Z,48.75
2023-03-06T20:40:59.046Z,45.33
2023-03-06T20:46:05.200Z,38.75
2023-03-06T20:51:33.871Z,14.75
2023-03-06T20:56:40.751Z,38.33
2023-03-06T21:06:54.043Z,44.67
2023-03-06T21:11:58.741Z,40.00
2023-03-06T21:17:03.468Z,50.00
2023-03-06T21:22:08.084Z,42.50
2023-03-06T21:27:12.634Z,14.67
2023-03-06T21:32:17.480Z,44.25
2023-03-06T21:37:22.090Z,47.67
2023-03-06T21:42:26.859Z,43.25
2023-03-06T21:47:32.829Z,40.33
2023-03-06T21:52:37.676Z,30.33
2023-03-06T21:57:42.648Z,21.00
2023-03-06T22:02:47.646Z,39.75
2023-03-06T22:07:52.655Z,36.00
2023-03-06T22:12:57.262Z,0.00
2023-03-06T22:18:02.077Z,14.00
2023-03-06T22:23:06.764Z,24.33
2023-03-06T22:28:11.485Z,40.25
2023-03-06T22:33:16.196Z,24.33
2023-03-06T22:38:20.793Z,48.75
2023-03-06T22:48:29.849Z,41.33
2023-03-06T22:53:35.246Z,31.75
2023-03-06T22:58:40.271Z,37.25
2023-03-06T23:03:48.021Z,29.50
2023-03-06T23:09:13.623Z,48.00
2023-03-06T23:14:36.086Z,17.50
2023-03-06T23:19:58.568Z,19.00
2023-03-06T23:30:25.338Z,9.25
2023-03-06T23:35:30.081Z,6.50
2023-03-06T23:40:35.900Z,15.67
2023-03-06T23:45:40.547Z,19.50
2023-03-06T23:50:45.115Z,11.67
2023-03-06T23:55:51.641Z,20.75
